Track Синявский Тимофей

Time Latitude Longitude Accuracy (66% radius in meters) Altitude (meters) Speed (km/hour) Bearing (degrees) Battery (%) GPS flag
07:20:48 57.204488 60.120944 28.944000244141 319 0 0 45 1 delete
07:20:37 57.204488 60.120944 8.576000213623 319 0 0 45 1 delete
07:20:26 57.204488 60.120944 8.576000213623 319 0 0 45 1 delete
07:20:15 57.204488 60.120944 12.864000320435 319 0 0 45 1 delete
07:20:05 57.204488 60.120944 45.024002075195 321 0 0 45 1 delete
07:19:19 57.204488 60.120944 18.224000930786 319 0 0 45 1 delete
07:19:09 57.204488 60.120944 11.791999816895 319 0 0 45 1 delete
07:18:58 57.204488 60.120943 10.720000267029 319 0 0 45 1 delete
07:18:48 57.204488 60.120943 10.720000267029 319 0 0 45 1 delete
07:18:38 57.204488 60.120943 5.3600001335144 319 0 0 45 1 delete
07:18:24 57.204488 60.120943 6.4320001602173 319 0 0 45 1 delete
07:18:14 57.204488 60.120943 5.3600001335144 319 0 0 45 1 delete
07:18:03 57.204488 60.120943 4.2880001068115 319 0 0 45 1 delete
07:17:53 57.204488 60.120942 5.3600001335144 319 0 0 45 1 delete
07:17:42 57.204503 60.120938 3.2160000801086 318 0.47999998927116 113.80000305176 45 1 delete
07:17:39 57.204517 60.120869 4.2880001068115 317 2.0699999332428 105.80000305176 45 1 delete
07:17:32 57.204475 60.120693 3.2160000801086 316 2 48.599998474121 45 1 delete
07:17:27 57.204450 60.120524 4.2880001068115 316 1.8300000429153 77.5 45 1 delete
07:17:23 57.204444 60.120356 3.2160000801086 317 2.1400001049042 86.400001525879 45 1 delete
07:17:22 57.204443 60.120313 4.2880001068115 317 2.2999999523163 88.900001525879 45 1 delete
07:17:19 57.204446 60.120191 3.2160000801086 317 1.9800000190735 91.400001525879 45 1 delete
07:17:14 57.204452 60.120021 4.2880001068115 318 1.5700000524521 48.299999237061 45 1 delete
07:17:11 57.204430 60.119917 4.2880001068115 324 1.6599999666214 57 45 1 delete
07:17:08 57.204412 60.119841 3.2160000801086 324 1.7799999713898 55.400001525879 45 1 delete
07:17:01 57.204350 60.119684 3.2160000801086 322 1.7599999904633 46.599998474121 45 1 delete
07:16:55 57.204274 60.119565 3.2160000801086 323 2.0099999904633 52.200000762939 45 1 delete
07:16:51 57.204226 60.119424 3.2160000801086 321 2.3800001144409 57.599998474121 45 1 delete
07:16:46 57.204164 60.119287 3.2160000801086 324 2.6199998855591 45.200000762939 45 1 delete
07:16:40 57.204096 60.119163 3.2160000801086 321 2.0299999713898 33.5 45 1 delete
07:16:34 57.204015 60.119035 3.2160000801086 320 2.1600000858307 37.200000762939 45 1 delete
07:16:30 57.203985 60.118974 3.2160000801086 322 1.2400000095367 36.400001525879 45 1 delete
07:16:27 57.203947 60.118924 3.2160000801086 320 2.0199999809265 31.39999961853 45 1 delete
07:16:21 57.203868 60.118838 3.2160000801086 318 2 20.60000038147 45 1 delete
07:16:20 57.203853 60.118832 4.2880001068115 317 1.6599999666214 16.200000762939 45 1 delete
07:16:14 57.203776 60.118867 3.2160000801086 318 1.7799999713898 337.89999389648 45 1 delete
07:16:09 57.203744 60.118970 3.2160000801086 315 1.3600000143051 292.89999389648 45 1 delete
07:15:58 57.203741 60.119015 3.2160000801086 317 0 0 45 1 delete
07:15:48 57.203741 60.119020 3.2160000801086 316 0 0 45 1 delete
07:15:37 57.203743 60.119020 4.2880001068115 316 0 0 45 1 delete
07:15:27 57.203740 60.119046 3.2160000801086 315 0 0 45 1 delete
07:15:23 57.203742 60.119021 4.2880001068115 315 1.6000000238419 99.199996948242 45 1 delete
07:15:19 57.203763 60.118852 3.2160000801086 314 3.0299999713898 110.09999847412 45 1 delete
07:15:17 57.203779 60.118761 3.2160000801086 316 2.1199998855591 117.59999847412 45 1 delete
07:15:15 57.203793 60.118689 3.2160000801086 316 1.8999999761581 92.699996948242 45 1 delete
07:15:10 57.203852 60.118531 3.2160000801086 314 2.5899999141693 142.80000305176 45 1 delete
07:15:05 57.203924 60.118441 3.2160000801086 316 1.3500000238419 155 45 1 delete
07:15:03 57.203942 60.118420 3.2160000801086 316 1.0299999713898 123.5 45 1 delete
07:14:54 57.203980 60.118246 3.2160000801086 318 0 0 45 1 delete
07:14:45 57.204049 60.118132 3.2160000801086 318 3.0699999332428 139.69999694824 45 1 delete
07:14:44 57.204072 60.118096 3.2160000801086 318 3.2400000095367 141.5 45 1 delete